Aviation Digital Data Service (ADDS)

Output produced by METARs form (1724 UTC 20 January 2019)
found at http://www.aviationweather.gov/metar/data/
 
Forecast for: PTRO (BABELTHUAP/KOROR, FM)
Text: PTRO 201132Z 2012/2112 09007KT P6SM SCT016 BKN120
Forecast period: 1200 UTC 20 January 2019 to 1200 UTC 21 January 2019
Forecast type: FROM: standard forecast or significant change
Winds: from the E (90 degrees) at 8 MPH (7 knots; 3.6 m/s)
Visibility: 6 or more miles 10+ km)
Ceiling: 12000 feet AGL
Clouds: scattered clouds at 1600 feet AGL
broken clouds at 12000 feet AGL
Weather: no significant weather forecast for this period